sensor_id;sensor_type;location;lat;lon;timestamp;P1;durP1;ratioP1;P2;durP2;ratioP2
12112;SDS011;6120;52.250;8.478;2023-10-08T00:00:49;19.02;;;5.63;;
12112;SDS011;6120;52.250;8.478;2023-10-08T00:03:16;16.75;;;5.18;;
12112;SDS011;6120;52.250;8.478;2023-10-08T00:05:44;21.45;;;5.80;;
12112;SDS011;6120;52.250;8.478;2023-10-08T00:08:12;17.73;;;5.10;;
12112;SDS011;6120;52.250;8.478;2023-10-08T00:10:43;19.20;;;5.43;;
12112;SDS011;6120;52.250;8.478;2023-10-08T00:13:11;16.33;;;5.03;;
12112;SDS011;6120;52.250;8.478;2023-10-08T00:15:39;13.15;;;5.30;;
12112;SDS011;6120;52.250;8.478;2023-10-08T00:18:20;14.57;;;3.90;;
12112;SDS011;6120;52.250;8.478;2023-10-08T00:20:47;4.37;;;1.83;;
12112;SDS011;6120;52.250;8.478;2023-10-08T00:23:21;3.03;;;1.08;;
12112;SDS011;6120;52.250;8.478;2023-10-08T00:25:48;1.35;;;1.02;;
12112;SDS011;6120;52.250;8.478;2023-10-08T00:28:16;1.45;;;1.00;;
12112;SDS011;6120;52.250;8.478;2023-10-08T00:30:43;1.55;;;1.00;;
12112;SDS011;6120;52.250;8.478;2023-10-08T00:33:10;1.65;;;1.20;;
12112;SDS011;6120;52.250;8.478;2023-10-08T00:35:41;0.70;;;0.70;;
12112;SDS011;6120;52.250;8.478;2023-10-08T00:38:08;0.50;;;0.50;;
12112;SDS011;6120;52.250;8.478;2023-10-08T00:40:44;0.75;;;0.65;;
12112;SDS011;6120;52.250;8.478;2023-10-08T00:46:11;0.57;;;0.40;;
12112;SDS011;6120;52.250;8.478;2023-10-08T00:48:49;0.40;;;0.40;;
12112;SDS011;6120;52.250;8.478;2023-10-08T00:51:23;0.40;;;0.40;;
12112;SDS011;6120;52.250;8.478;2023-10-08T00:53:57;0.30;;;0.30;;
12112;SDS011;6120;52.250;8.478;2023-10-08T00:56:32;0.45;;;0.40;;
12112;SDS011;6120;52.250;8.478;2023-10-08T00:59:19;0.25;;;0.25;;
12112;SDS011;6120;52.250;8.478;2023-10-08T01:01:50;0.22;;;0.22;;
12112;SDS011;6120;52.250;8.478;2023-10-08T01:04:18;0.20;;;0.20;;
12112;SDS011;6120;52.250;8.478;2023-10-08T01:06:50;0.22;;;0.22;;
12112;SDS011;6120;52.250;8.478;2023-10-08T01:09:22;0.30;;;0.30;;
12112;SDS011;6120;52.250;8.478;2023-10-08T01:12:08;1.27;;;0.40;;
12112;SDS011;6120;52.250;8.478;2023-10-08T01:14:55;0.40;;;0.40;;
12112;SDS011;6120;52.250;8.478;2023-10-08T01:17:26;0.30;;;0.30;;
12112;SDS011;6120;52.250;8.478;2023-10-08T01:19:58;0.25;;;0.25;;
12112;SDS011;6120;52.250;8.478;2023-10-08T01:22:47;0.30;;;0.30;;
12112;SDS011;6120;52.250;8.478;2023-10-08T01:25:14;0.30;;;0.30;;
12112;SDS011;6120;52.250;8.478;2023-10-08T01:27:55;0.20;;;0.20;;
12112;SDS011;6120;52.250;8.478;2023-10-08T01:30:22;0.20;;;0.20;;
12112;SDS011;6120;52.250;8.478;2023-10-08T01:32:49;0.38;;;0.38;;
12112;SDS011;6120;52.250;8.478;2023-10-08T01:35:16;0.20;;;0.20;;
12112;SDS011;6120;52.250;8.478;2023-10-08T01:37:52;0.17;;;0.13;;
12112;SDS011;6120;52.250;8.478;2023-10-08T01:40:22;0.10;;;0.10;;
12112;SDS011;6120;52.250;8.478;2023-10-08T01:42:52;0.10;;;0.10;;
12112;SDS011;6120;52.250;8.478;2023-10-08T01:45:19;0.10;;;0.10;;
12112;SDS011;6120;52.250;8.478;2023-10-08T01:47:46;0.75;;;0.20;;
12112;SDS011;6120;52.250;8.478;2023-10-08T01:50:18;0.30;;;0.30;;
12112;SDS011;6120;52.250;8.478;2023-10-08T01:52:55;0.32;;;0.30;;
12112;SDS011;6120;52.250;8.478;2023-10-08T01:55:22;0.20;;;0.20;;
12112;SDS011;6120;52.250;8.478;2023-10-08T01:57:49;0.80;;;0.25;;
12112;SDS011;6120;52.250;8.478;2023-10-08T02:00:19;0.20;;;0.20;;
12112;SDS011;6120;52.250;8.478;2023-10-08T02:02:46;0.13;;;0.13;;
12112;SDS011;6120;52.250;8.478;2023-10-08T02:05:14;0.20;;;0.20;;
12112;SDS011;6120;52.250;8.478;2023-10-08T02:07:41;0.10;;;0.10;;
12112;SDS011;6120;52.250;8.478;2023-10-08T02:10:10;0.43;;;0.17;;
12112;SDS011;6120;52.250;8.478;2023-10-08T02:12:38;0.10;;;0.10;;
12112;SDS011;6120;52.250;8.478;2023-10-08T02:15:05;0.20;;;0.20;;
12112;SDS011;6120;52.250;8.478;2023-10-08T02:17:37;0.20;;;0.20;;
12112;SDS011;6120;52.250;8.478;2023-10-08T02:20:05;0.33;;;0.30;;
12112;SDS011;6120;52.250;8.478;2023-10-08T02:22:32;0.33;;;0.20;;
12112;SDS011;6120;52.250;8.478;2023-10-08T02:24:59;0.75;;;0.30;;
12112;SDS011;6120;52.250;8.478;2023-10-08T02:27:30;0.20;;;0.20;;
12112;SDS011;6120;52.250;8.478;2023-10-08T02:29:59;0.68;;;0.60;;
12112;SDS011;6120;52.250;8.478;2023-10-08T02:32:28;0.50;;;0.43;;
12112;SDS011;6120;52.250;8.478;2023-10-08T02:34:56;1.03;;;0.43;;
12112;SDS011;6120;52.250;8.478;2023-10-08T02:37:23;0.37;;;0.37;;
12112;SDS011;6120;52.250;8.478;2023-10-08T02:39:50;0.80;;;0.40;;
12112;SDS011;6120;52.250;8.478;2023-10-08T02:42:17;2.47;;;0.60;;
12112;SDS011;6120;52.250;8.478;2023-10-08T02:44:43;2.33;;;0.75;;
12112;SDS011;6120;52.250;8.478;2023-10-08T02:47:11;1.40;;;0.60;;
12112;SDS011;6120;52.250;8.478;2023-10-08T02:49:38;1.90;;;0.50;;
12112;SDS011;6120;52.250;8.478;2023-10-08T02:52:08;2.08;;;0.90;;
12112;SDS011;6120;52.250;8.478;2023-10-08T02:54:35;2.58;;;0.50;;
12112;SDS011;6120;52.250;8.478;2023-10-08T02:57:04;1.73;;;0.70;;
12112;SDS011;6120;52.250;8.478;2023-10-08T02:59:36;1.48;;;0.55;;
12112;SDS011;6120;52.250;8.478;2023-10-08T03:02:13;2.35;;;0.75;;
12112;SDS011;6120;52.250;8.478;2023-10-08T03:07:15;3.15;;;0.73;;
12112;SDS011;6120;52.250;8.478;2023-10-08T03:09:49;4.15;;;0.90;;
12112;SDS011;6120;52.250;8.478;2023-10-08T03:12:30;3.50;;;0.60;;
12112;SDS011;6120;52.250;8.478;2023-10-08T03:14:58;2.55;;;0.60;;
12112;SDS011;6120;52.250;8.478;2023-10-08T03:17:41;2.55;;;0.55;;
12112;SDS011;6120;52.250;8.478;2023-10-08T03:20:31;1.55;;;0.50;;
12112;SDS011;6120;52.250;8.478;2023-10-08T03:23:07;1.05;;;0.70;;
12112;SDS011;6120;52.250;8.478;2023-10-08T03:25:40;1.90;;;0.68;;
12112;SDS011;6120;52.250;8.478;2023-10-08T03:28:12;1.48;;;0.70;;
12112;SDS011;6120;52.250;8.478;2023-10-08T03:30:39;0.80;;;0.47;;
12112;SDS011;6120;52.250;8.478;2023-10-08T03:33:18;1.23;;;0.55;;
12112;SDS011;6120;52.250;8.478;2023-10-08T03:35:53;1.67;;;0.80;;
12112;SDS011;6120;52.250;8.478;2023-10-08T03:38:22;2.47;;;0.77;;
12112;SDS011;6120;52.250;8.478;2023-10-08T03:40:55;4.95;;;0.65;;
12112;SDS011;6120;52.250;8.478;2023-10-08T03:43:32;2.30;;;0.63;;
12112;SDS011;6120;52.250;8.478;2023-10-08T03:46:10;2.10;;;0.70;;
12112;SDS011;6120;52.250;8.478;2023-10-08T03:48:42;2.80;;;0.60;;
12112;SDS011;6120;52.250;8.478;2023-10-08T03:51:11;2.88;;;0.80;;
12112;SDS011;6120;52.250;8.478;2023-10-08T03:53:39;2.88;;;0.60;;
12112;SDS011;6120;52.250;8.478;2023-10-08T03:56:25;3.63;;;1.05;;
12112;SDS011;6120;52.250;8.478;2023-10-08T03:58:57;1.33;;;0.70;;
12112;SDS011;6120;52.250;8.478;2023-10-08T04:01:27;1.92;;;0.63;;
12112;SDS011;6120;52.250;8.478;2023-10-08T04:03:58;2.83;;;0.98;;
12112;SDS011;6120;52.250;8.478;2023-10-08T04:06:26;2.10;;;0.70;;
12112;SDS011;6120;52.250;8.478;2023-10-08T04:08:57;2.60;;;0.63;;
12112;SDS011;6120;52.250;8.478;2023-10-08T04:11:36;2.28;;;0.70;;
12112;SDS011;6120;52.250;8.478;2023-10-08T04:14:15;3.05;;;0.77;;
12112;SDS011;6120;52.250;8.478;2023-10-08T04:16:42;1.80;;;0.65;;
12112;SDS011;6120;52.250;8.478;2023-10-08T04:19:10;1.60;;;0.65;;
12112;SDS011;6120;52.250;8.478;2023-10-08T04:21:38;1.27;;;0.60;;
12112;SDS011;6120;52.250;8.478;2023-10-08T04:24:09;2.28;;;0.70;;
12112;SDS011;6120;52.250;8.478;2023-10-08T04:26:37;1.90;;;0.60;;
12112;SDS011;6120;52.250;8.478;2023-10-08T04:29:07;2.83;;;0.68;;
12112;SDS011;6120;52.250;8.478;2023-10-08T04:31:34;1.00;;;0.50;;
12112;SDS011;6120;52.250;8.478;2023-10-08T04:34:12;1.17;;;0.60;;
12112;SDS011;6120;52.250;8.478;2023-10-08T04:36:42;2.10;;;0.50;;
12112;SDS011;6120;52.250;8.478;2023-10-08T04:39:13;2.97;;;0.70;;
12112;SDS011;6120;52.250;8.478;2023-10-08T04:41:47;2.13;;;0.70;;
12112;SDS011;6120;52.250;8.478;2023-10-08T04:44:19;1.10;;;0.63;;
12112;SDS011;6120;52.250;8.478;2023-10-08T04:46:48;1.00;;;0.55;;
12112;SDS011;6120;52.250;8.478;2023-10-08T04:49:19;4.03;;;0.80;;
12112;SDS011;6120;52.250;8.478;2023-10-08T04:51:56;1.75;;;0.60;;
12112;SDS011;6120;52.250;8.478;2023-10-08T04:54:26;2.15;;;0.60;;
12112;SDS011;6120;52.250;8.478;2023-10-08T04:56:57;2.45;;;0.80;;
12112;SDS011;6120;52.250;8.478;2023-10-08T04:59:25;2.22;;;0.82;;
12112;SDS011;6120;52.250;8.478;2023-10-08T05:02:01;1.98;;;0.60;;
12112;SDS011;6120;52.250;8.478;2023-10-08T05:04:47;3.13;;;0.68;;
12112;SDS011;6120;52.250;8.478;2023-10-08T05:07:33;4.97;;;0.80;;
12112;SDS011;6120;52.250;8.478;2023-10-08T05:10:12;1.77;;;0.57;;
12112;SDS011;6120;52.250;8.478;2023-10-08T05:12:51;1.67;;;0.60;;
12112;SDS011;6120;52.250;8.478;2023-10-08T05:15:41;1.92;;;0.60;;
12112;SDS011;6120;52.250;8.478;2023-10-08T05:18:16;3.25;;;1.50;;
12112;SDS011;6120;52.250;8.478;2023-10-08T05:20:50;1.83;;;0.82;;
12112;SDS011;6120;52.250;8.478;2023-10-08T05:23:18;1.38;;;0.60;;
12112;SDS011;6120;52.250;8.478;2023-10-08T05:25:52;3.00;;;0.80;;
12112;SDS011;6120;52.250;8.478;2023-10-08T05:28:32;2.35;;;0.90;;
12112;SDS011;6120;52.250;8.478;2023-10-08T05:31:08;1.50;;;0.93;;
12112;SDS011;6120;52.250;8.478;2023-10-08T05:33:55;3.67;;;1.40;;
12112;SDS011;6120;52.250;8.478;2023-10-08T05:36:41;4.18;;;1.77;;
12112;SDS011;6120;52.250;8.478;2023-10-08T05:39:37;5.43;;;1.90;;
12112;SDS011;6120;52.250;8.478;2023-10-08T05:42:09;3.58;;;2.00;;
12112;SDS011;6120;52.250;8.478;2023-10-08T05:44:58;4.35;;;2.35;;
12112;SDS011;6120;52.250;8.478;2023-10-08T05:47:36;3.95;;;2.35;;
12112;SDS011;6120;52.250;8.478;2023-10-08T05:50:04;5.82;;;2.40;;
12112;SDS011;6120;52.250;8.478;2023-10-08T05:52:44;4.75;;;2.63;;
12112;SDS011;6120;52.250;8.478;2023-10-08T05:55:37;6.47;;;2.95;;
12112;SDS011;6120;52.250;8.478;2023-10-08T05:58:14;6.35;;;2.83;;
12112;SDS011;6120;52.250;8.478;2023-10-08T06:00:51;5.10;;;2.67;;
12112;SDS011;6120;52.250;8.478;2023-10-08T06:03:35;4.68;;;2.40;;
12112;SDS011;6120;52.250;8.478;2023-10-08T06:08:49;6.32;;;2.25;;
12112;SDS011;6120;52.250;8.478;2023-10-08T06:11:35;3.80;;;1.88;;
12112;SDS011;6120;52.250;8.478;2023-10-08T06:14:23;4.90;;;2.60;;
12112;SDS011;6120;52.250;8.478;2023-10-08T06:17:15;4.57;;;2.47;;
12112;SDS011;6120;52.250;8.478;2023-10-08T06:20:01;5.35;;;2.65;;
12112;SDS011;6120;52.250;8.478;2023-10-08T06:22:36;3.58;;;1.90;;
12112;SDS011;6120;52.250;8.478;2023-10-08T06:25:03;4.97;;;2.00;;
12112;SDS011;6120;52.250;8.478;2023-10-08T06:27:43;4.72;;;2.20;;
12112;SDS011;6120;52.250;8.478;2023-10-08T06:30:13;5.60;;;2.20;;
12112;SDS011;6120;52.250;8.478;2023-10-08T06:32:43;3.05;;;1.95;;
12112;SDS011;6120;52.250;8.478;2023-10-08T06:35:11;6.47;;;2.40;;
12112;SDS011;6120;52.250;8.478;2023-10-08T06:37:45;6.63;;;2.30;;
12112;SDS011;6120;52.250;8.478;2023-10-08T06:40:12;4.20;;;2.28;;
12112;SDS011;6120;52.250;8.478;2023-10-08T06:42:58;5.65;;;2.17;;
12112;SDS011;6120;52.250;8.478;2023-10-08T06:45:30;4.63;;;2.05;;
12112;SDS011;6120;52.250;8.478;2023-10-08T06:47:59;5.00;;;2.25;;
12112;SDS011;6120;52.250;8.478;2023-10-08T06:50:27;4.60;;;2.17;;
12112;SDS011;6120;52.250;8.478;2023-10-08T06:52:56;4.85;;;2.33;;
12112;SDS011;6120;52.250;8.478;2023-10-08T06:55:22;6.68;;;2.25;;
12112;SDS011;6120;52.250;8.478;2023-10-08T06:57:52;4.82;;;1.95;;
12112;SDS011;6120;52.250;8.478;2023-10-08T07:00:18;4.43;;;2.45;;
12112;SDS011;6120;52.250;8.478;2023-10-08T07:03:04;7.55;;;2.28;;
12112;SDS011;6120;52.250;8.478;2023-10-08T07:05:34;5.07;;;1.98;;
12112;SDS011;6120;52.250;8.478;2023-10-08T07:08:07;4.72;;;1.85;;
12112;SDS011;6120;52.250;8.478;2023-10-08T07:10:34;5.00;;;2.00;;
12112;SDS011;6120;52.250;8.478;2023-10-08T07:13:01;5.32;;;2.25;;
12112;SDS011;6120;52.250;8.478;2023-10-08T07:15:29;4.47;;;1.77;;
12112;SDS011;6120;52.250;8.478;2023-10-08T07:17:56;3.97;;;1.73;;
12112;SDS011;6120;52.250;8.478;2023-10-08T07:20:23;3.70;;;1.67;;
12112;SDS011;6120;52.250;8.478;2023-10-08T07:22:50;3.88;;;1.80;;
12112;SDS011;6120;52.250;8.478;2023-10-08T07:25:21;4.38;;;1.95;;
12112;SDS011;6120;52.250;8.478;2023-10-08T07:27:48;5.53;;;1.80;;
12112;SDS011;6120;52.250;8.478;2023-10-08T07:30:14;4.55;;;1.73;;
12112;SDS011;6120;52.250;8.478;2023-10-08T07:32:53;5.82;;;1.83;;
12112;SDS011;6120;52.250;8.478;2023-10-08T07:35:20;4.63;;;1.60;;
12112;SDS011;6120;52.250;8.478;2023-10-08T07:37:47;4.32;;;1.77;;
12112;SDS011;6120;52.250;8.478;2023-10-08T07:40:14;4.40;;;1.90;;
12112;SDS011;6120;52.250;8.478;2023-10-08T07:42:42;5.47;;;2.03;;
12112;SDS011;6120;52.250;8.478;2023-10-08T07:45:10;3.30;;;1.70;;
12112;SDS011;6120;52.250;8.478;2023-10-08T07:47:44;2.95;;;1.90;;
12112;SDS011;6120;52.250;8.478;2023-10-08T07:50:11;3.97;;;1.50;;
12112;SDS011;6120;52.250;8.478;2023-10-08T07:52:38;6.25;;;2.28;;
12112;SDS011;6120;52.250;8.478;2023-10-08T07:55:08;4.55;;;1.70;;
12112;SDS011;6120;52.250;8.478;2023-10-08T07:57:35;6.53;;;2.10;;
12112;SDS011;6120;52.250;8.478;2023-10-08T08:00:02;3.67;;;1.33;;
12112;SDS011;6120;52.250;8.478;2023-10-08T08:02:45;2.92;;;1.27;;
12112;SDS011;6120;52.250;8.478;2023-10-08T08:05:12;3.97;;;1.40;;
12112;SDS011;6120;52.250;8.478;2023-10-08T08:07:43;2.67;;;1.20;;
12112;SDS011;6120;52.250;8.478;2023-10-08T08:10:21;2.60;;;1.13;;
12112;SDS011;6120;52.250;8.478;2023-10-08T08:16:04;5.72;;;1.38;;
12112;SDS011;6120;52.250;8.478;2023-10-08T08:19:39;4.75;;;1.50;;
12112;SDS011;6120;52.250;8.478;2023-10-08T08:26:16;3.10;;;1.27;;
12112;SDS011;6120;52.250;8.478;2023-10-08T08:28:59;4.82;;;1.25;;
12112;SDS011;6120;52.250;8.478;2023-10-08T08:31:42;5.40;;;1.55;;
12112;SDS011;6120;52.250;8.478;2023-10-08T08:34:18;3.42;;;1.20;;
12112;SDS011;6120;52.250;8.478;2023-10-08T08:36:57;5.35;;;1.40;;
12112;SDS011;6120;52.250;8.478;2023-10-08T08:39:24;2.97;;;1.00;;
12112;SDS011;6120;52.250;8.478;2023-10-08T08:47:53;3.42;;;1.25;;
12112;SDS011;6120;52.250;8.478;2023-10-08T08:52:49;3.83;;;1.35;;
12112;SDS011;6120;52.250;8.478;2023-10-08T08:55:18;2.17;;;1.13;;
12112;SDS011;6120;52.250;8.478;2023-10-08T08:57:47;2.33;;;1.00;;
12112;SDS011;6120;52.250;8.478;2023-10-08T09:00:17;4.88;;;1.10;;
12112;SDS011;6120;52.250;8.478;2023-10-08T09:02:45;2.35;;;0.95;;
12112;SDS011;6120;52.250;8.478;2023-10-08T09:05:15;1.70;;;0.90;;
12112;SDS011;6120;52.250;8.478;2023-10-08T09:10:25;3.53;;;0.93;;
12112;SDS011;6120;52.250;8.478;2023-10-08T09:12:58;4.57;;;1.00;;
12112;SDS011;6120;52.250;8.478;2023-10-08T09:15:26;5.88;;;1.35;;
12112;SDS011;6120;52.250;8.478;2023-10-08T09:17:53;4.40;;;1.30;;
12112;SDS011;6120;52.250;8.478;2023-10-08T09:20:23;2.97;;;1.00;;
12112;SDS011;6120;52.250;8.478;2023-10-08T09:25:34;2.88;;;0.98;;
12112;SDS011;6120;52.250;8.478;2023-10-08T09:28:00;2.67;;;0.95;;
12112;SDS011;6120;52.250;8.478;2023-10-08T09:30:30;4.22;;;1.10;;
12112;SDS011;6120;52.250;8.478;2023-10-08T09:32:59;5.22;;;1.20;;
12112;SDS011;6120;52.250;8.478;2023-10-08T09:35:27;6.75;;;1.27;;
12112;SDS011;6120;52.250;8.478;2023-10-08T09:37:54;5.10;;;1.23;;
12112;SDS011;6120;52.250;8.478;2023-10-08T09:40:21;2.88;;;1.17;;
12112;SDS011;6120;52.250;8.478;2023-10-08T09:42:48;3.28;;;1.00;;
12112;SDS011;6120;52.250;8.478;2023-10-08T09:45:15;3.33;;;1.35;;
12112;SDS011;6120;52.250;8.478;2023-10-08T09:47:42;2.95;;;0.90;;
12112;SDS011;6120;52.250;8.478;2023-10-08T09:50:20;2.90;;;1.23;;
12112;SDS011;6120;52.250;8.478;2023-10-08T09:53:00;4.72;;;1.13;;
12112;SDS011;6120;52.250;8.478;2023-10-08T09:55:30;2.78;;;1.00;;
12112;SDS011;6120;52.250;8.478;2023-10-08T09:57:57;4.20;;;0.90;;
12112;SDS011;6120;52.250;8.478;2023-10-08T10:00:24;4.68;;;1.13;;
12112;SDS011;6120;52.250;8.478;2023-10-08T10:02:59;4.15;;;1.00;;
12112;SDS011;6120;52.250;8.478;2023-10-08T10:05:30;2.65;;;1.15;;
12112;SDS011;6120;52.250;8.478;2023-10-08T10:07:58;4.32;;;1.55;;
12112;SDS011;6120;52.250;8.478;2023-10-08T10:10:25;3.13;;;0.90;;
12112;SDS011;6120;52.250;8.478;2023-10-08T10:13:02;4.80;;;1.10;;
12112;SDS011;6120;52.250;8.478;2023-10-08T10:15:32;3.60;;;1.05;;
12112;SDS011;6120;52.250;8.478;2023-10-08T10:20:45;2.08;;;0.80;;
12112;SDS011;6120;52.250;8.478;2023-10-08T10:31:35;3.95;;;0.90;;
12112;SDS011;6120;52.250;8.478;2023-10-08T10:34:06;3.15;;;0.75;;
12112;SDS011;6120;52.250;8.478;2023-10-08T10:39:18;4.88;;;1.05;;
12112;SDS011;6120;52.250;8.478;2023-10-08T10:41:56;5.63;;;0.95;;
12112;SDS011;6120;52.250;8.478;2023-10-08T10:44:28;3.42;;;1.10;;
12112;SDS011;6120;52.250;8.478;2023-10-08T10:46:59;4.38;;;1.30;;
12112;SDS011;6120;52.250;8.478;2023-10-08T10:49:50;2.53;;;1.10;;
12112;SDS011;6120;52.250;8.478;2023-10-08T10:52:17;3.47;;;0.82;;
12112;SDS011;6120;52.250;8.478;2023-10-08T10:55:02;8.45;;;1.58;;
12112;SDS011;6120;52.250;8.478;2023-10-08T10:57:43;4.97;;;1.15;;
12112;SDS011;6120;52.250;8.478;2023-10-08T11:00:11;7.70;;;1.17;;
12112;SDS011;6120;52.250;8.478;2023-10-08T11:02:56;4.93;;;1.60;;
12112;SDS011;6120;52.250;8.478;2023-10-08T11:05:26;5.32;;;1.33;;
12112;SDS011;6120;52.250;8.478;2023-10-08T11:07:58;5.88;;;1.08;;
12112;SDS011;6120;52.250;8.478;2023-10-08T11:10:34;3.47;;;0.93;;
12112;SDS011;6120;52.250;8.478;2023-10-08T11:13:05;2.25;;;0.80;;
12112;SDS011;6120;52.250;8.478;2023-10-08T11:15:45;3.50;;;0.98;;
12112;SDS011;6120;52.250;8.478;2023-10-08T11:18:17;4.70;;;0.90;;
12112;SDS011;6120;52.250;8.478;2023-10-08T11:20:45;2.38;;;1.00;;
12112;SDS011;6120;52.250;8.478;2023-10-08T11:23:33;3.75;;;1.02;;
12112;SDS011;6120;52.250;8.478;2023-10-08T11:26:05;4.72;;;1.10;;
12112;SDS011;6120;52.250;8.478;2023-10-08T11:28:33;4.25;;;1.00;;
12112;SDS011;6120;52.250;8.478;2023-10-08T11:31:03;4.60;;;0.93;;
12112;SDS011;6120;52.250;8.478;2023-10-08T11:33:37;3.75;;;0.80;;
12112;SDS011;6120;52.250;8.478;2023-10-08T11:36:06;4.95;;;1.10;;
12112;SDS011;6120;52.250;8.478;2023-10-08T11:38:45;3.90;;;1.00;;
12112;SDS011;6120;52.250;8.478;2023-10-08T11:41:15;10.30;;;1.25;;
12112;SDS011;6120;52.250;8.478;2023-10-08T11:49:05;5.15;;;1.10;;
12112;SDS011;6120;52.250;8.478;2023-10-08T11:51:35;3.38;;;0.90;;
12112;SDS011;6120;52.250;8.478;2023-10-08T11:54:02;2.85;;;0.82;;
12112;SDS011;6120;52.250;8.478;2023-10-08T11:56:32;3.55;;;0.88;;
12112;SDS011;6120;52.250;8.478;2023-10-08T11:59:02;2.88;;;1.10;;
12112;SDS011;6120;52.250;8.478;2023-10-08T12:01:35;3.80;;;1.00;;
12112;SDS011;6120;52.250;8.478;2023-10-08T12:04:04;3.58;;;1.17;;
12112;SDS011;6120;52.250;8.478;2023-10-08T12:06:31;3.07;;;1.00;;
12112;SDS011;6120;52.250;8.478;2023-10-08T12:08:59;5.68;;;1.40;;
12112;SDS011;6120;52.250;8.478;2023-10-08T12:11:26;4.47;;;1.00;;
12112;SDS011;6120;52.250;8.478;2023-10-08T12:13:59;2.42;;;0.95;;
12112;SDS011;6120;52.250;8.478;2023-10-08T12:16:26;3.83;;;0.80;;
12112;SDS011;6120;52.250;8.478;2023-10-08T12:18:56;3.00;;;0.88;;
12112;SDS011;6120;52.250;8.478;2023-10-08T12:21:26;2.00;;;0.73;;
12112;SDS011;6120;52.250;8.478;2023-10-08T12:23:58;4.13;;;1.00;;
12112;SDS011;6120;52.250;8.478;2023-10-08T12:26:25;2.78;;;1.00;;
12112;SDS011;6120;52.250;8.478;2023-10-08T12:28:52;3.72;;;1.15;;
12112;SDS011;6120;52.250;8.478;2023-10-08T12:31:20;3.63;;;0.63;;
12112;SDS011;6120;52.250;8.478;2023-10-08T12:33:51;4.03;;;0.95;;
12112;SDS011;6120;52.250;8.478;2023-10-08T12:36:23;2.58;;;0.85;;
12112;SDS011;6120;52.250;8.478;2023-10-08T12:38:50;3.58;;;0.88;;
12112;SDS011;6120;52.250;8.478;2023-10-08T12:41:27;2.20;;;1.10;;
12112;SDS011;6120;52.250;8.478;2023-10-08T12:43:53;4.53;;;1.05;;
12112;SDS011;6120;52.250;8.478;2023-10-08T12:46:20;2.95;;;0.63;;
12112;SDS011;6120;52.250;8.478;2023-10-08T12:48:51;3.50;;;0.90;;
12112;SDS011;6120;52.250;8.478;2023-10-08T12:51:22;3.67;;;0.65;;
12112;SDS011;6120;52.250;8.478;2023-10-08T12:53:51;8.38;;;1.50;;
12112;SDS011;6120;52.250;8.478;2023-10-08T12:56:26;2.05;;;0.70;;
12112;SDS011;6120;52.250;8.478;2023-10-08T12:59:02;3.80;;;1.23;;
12112;SDS011;6120;52.250;8.478;2023-10-08T13:01:34;6.22;;;1.05;;
12112;SDS011;6120;52.250;8.478;2023-10-08T13:04:07;3.10;;;0.98;;
12112;SDS011;6120;52.250;8.478;2023-10-08T13:06:42;1.67;;;0.68;;
12112;SDS011;6120;52.250;8.478;2023-10-08T13:09:12;3.25;;;0.80;;
12112;SDS011;6120;52.250;8.478;2023-10-08T13:11:41;2.10;;;0.93;;
12112;SDS011;6120;52.250;8.478;2023-10-08T13:14:09;2.97;;;0.82;;
12112;SDS011;6120;52.250;8.478;2023-10-08T13:16:38;3.33;;;1.15;;
12112;SDS011;6120;52.250;8.478;2023-10-08T13:19:05;5.13;;;0.93;;
12112;SDS011;6120;52.250;8.478;2023-10-08T13:21:34;3.25;;;0.90;;
12112;SDS011;6120;52.250;8.478;2023-10-08T13:24:03;1.92;;;0.73;;
12112;SDS011;6120;52.250;8.478;2023-10-08T13:26:35;3.28;;;0.70;;
12112;SDS011;6120;52.250;8.478;2023-10-08T13:29:04;3.45;;;0.77;;
12112;SDS011;6120;52.250;8.478;2023-10-08T13:31:32;4.85;;;1.35;;
12112;SDS011;6120;52.250;8.478;2023-10-08T13:34:03;3.58;;;1.15;;
12112;SDS011;6120;52.250;8.478;2023-10-08T13:36:38;3.03;;;0.80;;
12112;SDS011;6120;52.250;8.478;2023-10-08T13:39:06;1.95;;;0.73;;
12112;SDS011;6120;52.250;8.478;2023-10-08T13:41:44;3.28;;;1.30;;
12112;SDS011;6120;52.250;8.478;2023-10-08T13:44:14;2.20;;;0.80;;
12112;SDS011;6120;52.250;8.478;2023-10-08T13:46:41;4.22;;;1.10;;
12112;SDS011;6120;52.250;8.478;2023-10-08T13:49:16;4.63;;;0.90;;
12112;SDS011;6120;52.250;8.478;2023-10-08T13:51:43;6.05;;;1.30;;
12112;SDS011;6120;52.250;8.478;2023-10-08T13:54:11;4.93;;;0.90;;
12112;SDS011;6120;52.250;8.478;2023-10-08T13:56:38;3.00;;;0.80;;
12112;SDS011;6120;52.250;8.478;2023-10-08T13:59:08;4.10;;;1.05;;
12112;SDS011;6120;52.250;8.478;2023-10-08T14:01:37;1.83;;;0.82;;
12112;SDS011;6120;52.250;8.478;2023-10-08T14:04:07;6.13;;;1.45;;
12112;SDS011;6120;52.250;8.478;2023-10-08T14:06:34;3.88;;;0.82;;
12112;SDS011;6120;52.250;8.478;2023-10-08T14:09:02;5.50;;;1.40;;
12112;SDS011;6120;52.250;8.478;2023-10-08T14:11:38;3.95;;;0.80;;
12112;SDS011;6120;52.250;8.478;2023-10-08T14:14:05;4.10;;;0.93;;
12112;SDS011;6120;52.250;8.478;2023-10-08T14:16:38;2.63;;;0.90;;
12112;SDS011;6120;52.250;8.478;2023-10-08T14:19:11;3.15;;;1.02;;
12112;SDS011;6120;52.250;8.478;2023-10-08T14:21:41;6.82;;;1.25;;
12112;SDS011;6120;52.250;8.478;2023-10-08T14:24:26;3.47;;;1.25;;
12112;SDS011;6120;52.250;8.478;2023-10-08T14:26:58;2.95;;;0.90;;
12112;SDS011;6120;52.250;8.478;2023-10-08T14:29:29;3.42;;;0.90;;
12112;SDS011;6120;52.250;8.478;2023-10-08T14:31:56;5.70;;;1.20;;
12112;SDS011;6120;52.250;8.478;2023-10-08T14:34:23;5.78;;;1.13;;
12112;SDS011;6120;52.250;8.478;2023-10-08T14:37:17;4.68;;;1.27;;
12112;SDS011;6120;52.250;8.478;2023-10-08T14:40:03;3.45;;;0.85;;
12112;SDS011;6120;52.250;8.478;2023-10-08T14:42:48;3.97;;;1.10;;
12112;SDS011;6120;52.250;8.478;2023-10-08T14:45:31;5.55;;;1.17;;
12112;SDS011;6120;52.250;8.478;2023-10-08T14:48:01;2.28;;;1.02;;
12112;SDS011;6120;52.250;8.478;2023-10-08T14:50:28;5.18;;;1.40;;
12112;SDS011;6120;52.250;8.478;2023-10-08T14:52:59;2.97;;;1.20;;
12112;SDS011;6120;52.250;8.478;2023-10-08T14:55:32;3.83;;;1.10;;
12112;SDS011;6120;52.250;8.478;2023-10-08T14:58:02;3.88;;;1.25;;
12112;SDS011;6120;52.250;8.478;2023-10-08T15:00:35;5.20;;;1.70;;
12112;SDS011;6120;52.250;8.478;2023-10-08T15:03:02;3.17;;;1.15;;
12112;SDS011;6120;52.250;8.478;2023-10-08T15:05:29;1.88;;;1.08;;
12112;SDS011;6120;52.250;8.478;2023-10-08T15:07:57;4.57;;;1.17;;
12112;SDS011;6120;52.250;8.478;2023-10-08T15:10:23;3.45;;;1.42;;
12112;SDS011;6120;52.250;8.478;2023-10-08T15:12:52;4.38;;;1.23;;
12112;SDS011;6120;52.250;8.478;2023-10-08T15:15:20;5.65;;;1.60;;
12112;SDS011;6120;52.250;8.478;2023-10-08T15:17:49;3.08;;;1.05;;
12112;SDS011;6120;52.250;8.478;2023-10-08T15:20:16;1.55;;;0.98;;
12112;SDS011;6120;52.250;8.478;2023-10-08T15:22:44;2.53;;;1.00;;
12112;SDS011;6120;52.250;8.478;2023-10-08T15:25:11;3.97;;;1.27;;
12112;SDS011;6120;52.250;8.478;2023-10-08T15:27:39;1.92;;;0.80;;
12112;SDS011;6120;52.250;8.478;2023-10-08T15:30:08;2.40;;;1.15;;
12112;SDS011;6120;52.250;8.478;2023-10-08T15:32:38;3.25;;;1.30;;
12112;SDS011;6120;52.250;8.478;2023-10-08T15:35:07;4.57;;;1.10;;
12112;SDS011;6120;52.250;8.478;2023-10-08T15:37:36;2.47;;;0.98;;
12112;SDS011;6120;52.250;8.478;2023-10-08T15:42:34;4.43;;;1.10;;
12112;SDS011;6120;52.250;8.478;2023-10-08T15:45:04;3.95;;;1.45;;
12112;SDS011;6120;52.250;8.478;2023-10-08T15:47:32;5.25;;;1.20;;
12112;SDS011;6120;52.250;8.478;2023-10-08T15:49:59;4.07;;;1.00;;
12112;SDS011;6120;52.250;8.478;2023-10-08T15:52:26;2.83;;;1.20;;
12112;SDS011;6120;52.250;8.478;2023-10-08T15:54:53;3.05;;;1.10;;
12112;SDS011;6120;52.250;8.478;2023-10-08T15:57:20;4.28;;;1.33;;
12112;SDS011;6120;52.250;8.478;2023-10-08T15:59:46;3.55;;;0.90;;
12112;SDS011;6120;52.250;8.478;2023-10-08T16:02:13;3.00;;;0.90;;
12112;SDS011;6120;52.250;8.478;2023-10-08T16:04:40;4.82;;;1.10;;
12112;SDS011;6120;52.250;8.478;2023-10-08T16:07:07;2.38;;;1.00;;
12112;SDS011;6120;52.250;8.478;2023-10-08T16:09:33;2.45;;;1.02;;
12112;SDS011;6120;52.250;8.478;2023-10-08T16:12:00;2.70;;;1.10;;
12112;SDS011;6120;52.250;8.478;2023-10-08T16:14:27;2.95;;;1.10;;
12112;SDS011;6120;52.250;8.478;2023-10-08T16:16:53;3.47;;;0.85;;
12112;SDS011;6120;52.250;8.478;2023-10-08T16:19:20;3.80;;;1.45;;